sensor_id;sensor_type;location;lat;lon;timestamp;pressure;altitude;pressure_sealevel;temperature;humidity
30618;BME280;17384;51.214;9.202;2023-05-22T00:00:34;98507.69;;;15.22;82.41
30618;BME280;17384;51.214;9.202;2023-05-22T00:03:01;98504.47;;;15.26;82.03
30618;BME280;17384;51.214;9.202;2023-05-22T00:05:30;98508.84;;;15.27;81.90
30618;BME280;17384;51.214;9.202;2023-05-22T00:07:58;98509.19;;;15.30;82.14
30618;BME280;17384;51.214;9.202;2023-05-22T00:10:24;98510.03;;;15.14;82.54
30618;BME280;17384;51.214;9.202;2023-05-22T00:12:49;98506.16;;;15.10;82.76
30618;BME280;17384;51.214;9.202;2023-05-22T00:15:15;98498.84;;;15.15;83.34
30618;BME280;17384;51.214;9.202;2023-05-22T00:17:40;98507.06;;;15.15;83.31
30618;BME280;17384;51.214;9.202;2023-05-22T00:20:06;98510.28;;;15.12;83.48
30618;BME280;17384;51.214;9.202;2023-05-22T00:22:35;98507.22;;;15.09;83.79
30618;BME280;17384;51.214;9.202;2023-05-22T00:25:04;98502.59;;;15.09;83.87
30618;BME280;17384;51.214;9.202;2023-05-22T00:27:29;98507.47;;;15.07;83.90
30618;BME280;17384;51.214;9.202;2023-05-22T00:29:55;98507.19;;;15.04;84.68
30618;BME280;17384;51.214;9.202;2023-05-22T00:32:20;98506.53;;;14.97;85.25
30618;BME280;17384;51.214;9.202;2023-05-22T00:34:46;98499.22;;;15.02;85.17
30618;BME280;17384;51.214;9.202;2023-05-22T00:37:11;98495.19;;;14.88;86.30
30618;BME280;17384;51.214;9.202;2023-05-22T00:39:37;98494.75;;;14.96;85.54
30618;BME280;17384;51.214;9.202;2023-05-22T00:42:03;98494.69;;;14.91;86.23
30618;BME280;17384;51.214;9.202;2023-05-22T00:44:28;98494.84;;;15.01;85.92
30618;BME280;17384;51.214;9.202;2023-05-22T00:46:54;98501.88;;;14.97;85.66
30618;BME280;17384;51.214;9.202;2023-05-22T00:49:21;98499.31;;;14.90;86.43
30618;BME280;17384;51.214;9.202;2023-05-22T00:51:47;98500.72;;;14.93;85.60
30618;BME280;17384;51.214;9.202;2023-05-22T00:54:13;98488.66;;;14.89;85.21
30618;BME280;17384;51.214;9.202;2023-05-22T00:56:39;98499.41;;;14.79;86.08
30618;BME280;17384;51.214;9.202;2023-05-22T00:59:05;98506.78;;;14.78;86.09
30618;BME280;17384;51.214;9.202;2023-05-22T01:01:31;98494.03;;;14.84;85.74
30618;BME280;17384;51.214;9.202;2023-05-22T01:04:00;98502.34;;;14.72;87.02
30618;BME280;17384;51.214;9.202;2023-05-22T01:06:26;98492.25;;;14.73;86.85
30618;BME280;17384;51.214;9.202;2023-05-22T01:08:52;98500.44;;;14.73;86.74
30618;BME280;17384;51.214;9.202;2023-05-22T01:11:53;98497.19;;;14.76;87.21
30618;BME280;17384;51.214;9.202;2023-05-22T01:14:41;98497.88;;;14.66;87.48
30618;BME280;17384;51.214;9.202;2023-05-22T01:23:07;98486.78;;;14.56;87.78
30618;BME280;17384;51.214;9.202;2023-05-22T01:31:05;98485.19;;;14.60;87.14
30618;BME280;17384;51.214;9.202;2023-05-22T01:33:39;98491.50;;;14.61;86.81
30618;BME280;17384;51.214;9.202;2023-05-22T01:36:07;98492.81;;;14.58;87.07
30618;BME280;17384;51.214;9.202;2023-05-22T01:38:33;98478.81;;;14.38;87.10
30618;BME280;17384;51.214;9.202;2023-05-22T01:41:00;98479.88;;;14.37;87.80
30618;BME280;17384;51.214;9.202;2023-05-22T01:43:26;98475.50;;;14.36;87.03
30618;BME280;17384;51.214;9.202;2023-05-22T01:45:51;98489.88;;;14.31;86.58
30618;BME280;17384;51.214;9.202;2023-05-22T01:48:17;98482.63;;;14.20;87.01
30618;BME280;17384;51.214;9.202;2023-05-22T01:50:42;98478.97;;;14.14;87.32
30618;BME280;17384;51.214;9.202;2023-05-22T01:58:44;98471.66;;;14.03;88.47
30618;BME280;17384;51.214;9.202;2023-05-22T02:01:13;98485.13;;;13.93;89.24
30618;BME280;17384;51.214;9.202;2023-05-22T02:03:42;98479.16;;;13.79;90.00
30618;BME280;17384;51.214;9.202;2023-05-22T02:06:09;98478.06;;;13.80;89.60
30618;BME280;17384;51.214;9.202;2023-05-22T02:08:38;98482.47;;;13.81;89.92
30618;BME280;17384;51.214;9.202;2023-05-22T02:11:07;98481.03;;;13.79;89.58
30618;BME280;17384;51.214;9.202;2023-05-22T02:13:34;98484.47;;;13.86;89.26
30618;BME280;17384;51.214;9.202;2023-05-22T02:16:00;98471.16;;;13.89;88.87
30618;BME280;17384;51.214;9.202;2023-05-22T02:18:26;98469.84;;;13.92;88.44
30618;BME280;17384;51.214;9.202;2023-05-22T02:20:58;98477.72;;;13.77;88.20
30618;BME280;17384;51.214;9.202;2023-05-22T02:23:24;98477.97;;;13.75;88.07
30618;BME280;17384;51.214;9.202;2023-05-22T02:25:49;98480.00;;;13.68;87.99
30618;BME280;17384;51.214;9.202;2023-05-22T02:28:15;98480.53;;;13.65;87.80
30618;BME280;17384;51.214;9.202;2023-05-22T02:30:40;98469.75;;;13.59;87.95
30618;BME280;17384;51.214;9.202;2023-05-22T02:33:06;98472.03;;;13.50;88.41
30618;BME280;17384;51.214;9.202;2023-05-22T02:35:34;98476.91;;;13.48;88.75
30618;BME280;17384;51.214;9.202;2023-05-22T02:37:59;98475.38;;;13.40;88.40
30618;BME280;17384;51.214;9.202;2023-05-22T02:40:25;98458.13;;;13.35;89.09
30618;BME280;17384;51.214;9.202;2023-05-22T02:42:50;98462.75;;;13.34;88.76
30618;BME280;17384;51.214;9.202;2023-05-22T02:45:16;98471.16;;;13.33;88.59
30618;BME280;17384;51.214;9.202;2023-05-22T02:47:41;98468.06;;;13.29;88.40
30618;BME280;17384;51.214;9.202;2023-05-22T02:50:07;98456.00;;;13.25;88.63
30618;BME280;17384;51.214;9.202;2023-05-22T02:52:32;98464.06;;;13.20;88.84
30618;BME280;17384;51.214;9.202;2023-05-22T02:54:59;98458.97;;;13.12;88.67
30618;BME280;17384;51.214;9.202;2023-05-22T02:57:25;98458.28;;;13.05;88.76
30618;BME280;17384;51.214;9.202;2023-05-22T02:59:51;98461.22;;;13.03;88.60
30618;BME280;17384;51.214;9.202;2023-05-22T03:02:17;98454.59;;;12.99;88.97
30618;BME280;17384;51.214;9.202;2023-05-22T03:04:43;98462.66;;;12.94;89.05
30618;BME280;17384;51.214;9.202;2023-05-22T03:07:09;98452.41;;;12.84;89.38
30618;BME280;17384;51.214;9.202;2023-05-22T03:09:36;98452.03;;;12.81;89.98
30618;BME280;17384;51.214;9.202;2023-05-22T03:12:02;98455.94;;;12.73;89.94
30618;BME280;17384;51.214;9.202;2023-05-22T03:14:29;98453.09;;;12.68;90.52
30618;BME280;17384;51.214;9.202;2023-05-22T03:16:55;98444.25;;;12.49;90.37
30618;BME280;17384;51.214;9.202;2023-05-22T03:19:21;98445.78;;;12.45;90.73
30618;BME280;17384;51.214;9.202;2023-05-22T03:21:47;98447.53;;;12.40;91.02
30618;BME280;17384;51.214;9.202;2023-05-22T03:24:14;98444.00;;;12.39;90.71
30618;BME280;17384;51.214;9.202;2023-05-22T03:26:40;98440.56;;;12.44;90.90
30618;BME280;17384;51.214;9.202;2023-05-22T03:29:06;98437.63;;;12.45;90.25
30618;BME280;17384;51.214;9.202;2023-05-22T03:31:32;98449.53;;;12.33;90.08
30618;BME280;17384;51.214;9.202;2023-05-22T03:33:58;98454.75;;;12.34;90.08
30618;BME280;17384;51.214;9.202;2023-05-22T03:36:24;98446.94;;;12.38;89.75
30618;BME280;17384;51.214;9.202;2023-05-22T03:38:50;98442.81;;;12.35;89.51
30618;BME280;17384;51.214;9.202;2023-05-22T03:41:16;98445.75;;;12.34;89.56
30618;BME280;17384;51.214;9.202;2023-05-22T03:43:41;98450.72;;;12.13;89.62
30618;BME280;17384;51.214;9.202;2023-05-22T03:46:07;98458.38;;;12.05;90.20
30618;BME280;17384;51.214;9.202;2023-05-22T03:48:34;98448.00;;;12.02;90.98
30618;BME280;17384;51.214;9.202;2023-05-22T03:51:00;98462.28;;;11.97;91.21
30618;BME280;17384;51.214;9.202;2023-05-22T03:53:25;98458.84;;;12.02;91.41
30618;BME280;17384;51.214;9.202;2023-05-22T03:55:51;98455.91;;;12.03;91.81
30618;BME280;17384;51.214;9.202;2023-05-22T03:58:16;98446.94;;;12.14;90.87
30618;BME280;17384;51.214;9.202;2023-05-22T04:00:42;98447.28;;;12.18;90.06
30618;BME280;17384;51.214;9.202;2023-05-22T04:03:07;98463.59;;;12.18;90.05
30618;BME280;17384;51.214;9.202;2023-05-22T04:05:38;98459.38;;;12.22;89.98
30618;BME280;17384;51.214;9.202;2023-05-22T04:08:03;98466.59;;;12.28;90.18
30618;BME280;17384;51.214;9.202;2023-05-22T04:10:29;98463.38;;;12.31;90.54
30618;BME280;17384;51.214;9.202;2023-05-22T04:12:54;98459.13;;;12.35;90.51
30618;BME280;17384;51.214;9.202;2023-05-22T04:15:20;98462.44;;;12.37;89.99
30618;BME280;17384;51.214;9.202;2023-05-22T04:17:46;98467.19;;;12.42;90.23
30618;BME280;17384;51.214;9.202;2023-05-22T04:20:14;98466.25;;;12.48;90.56
30618;BME280;17384;51.214;9.202;2023-05-22T04:22:39;98469.19;;;12.46;90.20
30618;BME280;17384;51.214;9.202;2023-05-22T04:25:05;98463.88;;;12.51;90.31
30618;BME280;17384;51.214;9.202;2023-05-22T04:27:31;98469.91;;;12.53;90.20
30618;BME280;17384;51.214;9.202;2023-05-22T04:29:57;98466.72;;;12.57;90.03
30618;BME280;17384;51.214;9.202;2023-05-22T04:32:24;98478.78;;;12.61;90.53
30618;BME280;17384;51.214;9.202;2023-05-22T04:34:50;98476.78;;;12.68;90.44
30618;BME280;17384;51.214;9.202;2023-05-22T04:37:17;98471.44;;;12.73;90.23
30618;BME280;17384;51.214;9.202;2023-05-22T04:39:45;98469.91;;;12.77;90.99
30618;BME280;17384;51.214;9.202;2023-05-22T04:42:11;98474.41;;;12.83;90.63
30618;BME280;17384;51.214;9.202;2023-05-22T04:44:38;98474.19;;;12.84;90.77
30618;BME280;17384;51.214;9.202;2023-05-22T04:47:04;98473.31;;;12.96;91.10
30618;BME280;17384;51.214;9.202;2023-05-22T04:49:32;98477.81;;;13.02;90.46
30618;BME280;17384;51.214;9.202;2023-05-22T04:51:58;98480.50;;;13.13;90.86
30618;BME280;17384;51.214;9.202;2023-05-22T04:54:23;98480.03;;;13.28;90.67
30618;BME280;17384;51.214;9.202;2023-05-22T04:56:49;98479.44;;;13.38;89.77
30618;BME280;17384;51.214;9.202;2023-05-22T04:59:16;98477.72;;;13.48;89.18
30618;BME280;17384;51.214;9.202;2023-05-22T05:01:41;98472.47;;;13.59;88.67
30618;BME280;17384;51.214;9.202;2023-05-22T05:04:10;98473.25;;;13.71;88.53
30618;BME280;17384;51.214;9.202;2023-05-22T05:06:36;98487.09;;;13.81;87.88
30618;BME280;17384;51.214;9.202;2023-05-22T05:09:05;98487.88;;;13.93;87.55
30618;BME280;17384;51.214;9.202;2023-05-22T05:11:31;98490.50;;;14.05;86.97
30618;BME280;17384;51.214;9.202;2023-05-22T05:13:56;98470.19;;;14.12;86.58
30618;BME280;17384;51.214;9.202;2023-05-22T05:16:22;98482.38;;;14.21;86.14
30618;BME280;17384;51.214;9.202;2023-05-22T05:18:49;98486.31;;;14.31;85.72
30618;BME280;17384;51.214;9.202;2023-05-22T05:21:16;98471.94;;;14.35;85.60
30618;BME280;17384;51.214;9.202;2023-05-22T05:23:41;98479.19;;;14.41;85.35
30618;BME280;17384;51.214;9.202;2023-05-22T05:26:07;98468.94;;;14.48;85.03
30618;BME280;17384;51.214;9.202;2023-05-22T05:28:33;98476.09;;;14.54;85.70
30618;BME280;17384;51.214;9.202;2023-05-22T05:30:59;98478.16;;;14.64;85.57
30618;BME280;17384;51.214;9.202;2023-05-22T05:33:24;98481.06;;;14.74;85.46
30618;BME280;17384;51.214;9.202;2023-05-22T05:35:50;98470.53;;;14.83;85.52
30618;BME280;17384;51.214;9.202;2023-05-22T05:38:17;98474.00;;;14.95;85.06
30618;BME280;17384;51.214;9.202;2023-05-22T05:40:46;98466.00;;;15.10;84.03
30618;BME280;17384;51.214;9.202;2023-05-22T05:43:11;98489.97;;;15.25;84.03
30618;BME280;17384;51.214;9.202;2023-05-22T05:45:40;98485.44;;;15.36;83.73
30618;BME280;17384;51.214;9.202;2023-05-22T05:48:06;98490.88;;;15.52;83.06
30618;BME280;17384;51.214;9.202;2023-05-22T05:50:32;98492.34;;;15.60;82.42
30618;BME280;17384;51.214;9.202;2023-05-22T05:52:57;98481.47;;;15.65;82.21
30618;BME280;17384;51.214;9.202;2023-05-22T05:55:23;98491.63;;;15.70;81.85
30618;BME280;17384;51.214;9.202;2023-05-22T05:57:48;98489.34;;;15.83;81.14
30618;BME280;17384;51.214;9.202;2023-05-22T06:00:14;98492.75;;;15.96;80.92
30618;BME280;17384;51.214;9.202;2023-05-22T06:02:40;98491.25;;;16.10;80.60
30618;BME280;17384;51.214;9.202;2023-05-22T06:05:06;98497.94;;;16.24;80.04
30618;BME280;17384;51.214;9.202;2023-05-22T06:07:33;98489.28;;;16.32;79.62
30618;BME280;17384;51.214;9.202;2023-05-22T06:10:05;98494.34;;;16.50;79.17
30618;BME280;17384;51.214;9.202;2023-05-22T06:12:31;98499.44;;;16.69;78.84
30618;BME280;17384;51.214;9.202;2023-05-22T06:14:56;98497.41;;;16.86;78.08
30618;BME280;17384;51.214;9.202;2023-05-22T06:17:22;98490.94;;;17.07;77.96
30618;BME280;17384;51.214;9.202;2023-05-22T06:19:47;98495.72;;;17.22;77.61
30618;BME280;17384;51.214;9.202;2023-05-22T06:22:13;98507.28;;;17.34;77.52
30618;BME280;17384;51.214;9.202;2023-05-22T06:24:38;98502.69;;;17.50;76.80
30618;BME280;17384;51.214;9.202;2023-05-22T06:27:04;98491.81;;;17.65;76.25
30618;BME280;17384;51.214;9.202;2023-05-22T06:29:30;98499.25;;;17.80;75.46
30618;BME280;17384;51.214;9.202;2023-05-22T06:31:56;98506.19;;;17.98;74.54
30618;BME280;17384;51.214;9.202;2023-05-22T06:34:21;98505.13;;;18.24;73.96
30618;BME280;17384;51.214;9.202;2023-05-22T06:36:47;98501.84;;;18.42;73.37
30618;BME280;17384;51.214;9.202;2023-05-22T06:39:15;98496.13;;;18.69;72.56
30618;BME280;17384;51.214;9.202;2023-05-22T06:41:41;98508.22;;;18.78;71.75
30618;BME280;17384;51.214;9.202;2023-05-22T06:44:06;98501.56;;;19.10;70.90
30618;BME280;17384;51.214;9.202;2023-05-22T06:46:31;98501.22;;;19.37;69.39
30618;BME280;17384;51.214;9.202;2023-05-22T06:48:57;98491.19;;;19.71;66.90
30618;BME280;17384;51.214;9.202;2023-05-22T06:51:23;98498.44;;;20.06;66.28
30618;BME280;17384;51.214;9.202;2023-05-22T06:53:48;98496.34;;;20.32;65.33
30618;BME280;17384;51.214;9.202;2023-05-22T06:56:14;98497.94;;;20.48;65.33
30618;BME280;17384;51.214;9.202;2023-05-22T06:58:39;98500.03;;;20.61;64.62
30618;BME280;17384;51.214;9.202;2023-05-22T07:01:05;98500.81;;;20.96;62.85
30618;BME280;17384;51.214;9.202;2023-05-22T07:03:31;98508.31;;;21.19;62.34
30618;BME280;17384;51.214;9.202;2023-05-22T07:05:57;98505.94;;;21.37;61.78
30618;BME280;17384;51.214;9.202;2023-05-22T07:08:24;98493.78;;;21.38;61.40
30618;BME280;17384;51.214;9.202;2023-05-22T07:10:50;98499.25;;;21.14;61.92
30618;BME280;17384;51.214;9.202;2023-05-22T07:13:16;98499.66;;;21.02;60.85
30618;BME280;17384;51.214;9.202;2023-05-22T07:15:42;98499.25;;;20.85;61.49
30618;BME280;17384;51.214;9.202;2023-05-22T07:18:07;98500.19;;;20.75;61.42
30618;BME280;17384;51.214;9.202;2023-05-22T07:20:35;98501.91;;;21.00;60.59
30618;BME280;17384;51.214;9.202;2023-05-22T07:23:01;98512.69;;;20.97;60.70
30618;BME280;17384;51.214;9.202;2023-05-22T07:25:26;98508.88;;;20.58;60.61
30618;BME280;17384;51.214;9.202;2023-05-22T07:27:52;98508.72;;;20.79;61.83
30618;BME280;17384;51.214;9.202;2023-05-22T07:30:18;98504.19;;;20.88;61.19
30618;BME280;17384;51.214;9.202;2023-05-22T07:32:43;98506.47;;;20.81;59.69
30618;BME280;17384;51.214;9.202;2023-05-22T07:35:09;98510.69;;;20.73;60.92
30618;BME280;17384;51.214;9.202;2023-05-22T07:37:35;98506.66;;;20.89;59.04
30618;BME280;17384;51.214;9.202;2023-05-22T07:40:03;98509.22;;;20.81;60.35
30618;BME280;17384;51.214;9.202;2023-05-22T07:42:30;98521.47;;;20.70;60.68
30618;BME280;17384;51.214;9.202;2023-05-22T07:44:55;98508.59;;;20.89;59.27
30618;BME280;17384;51.214;9.202;2023-05-22T07:47:21;98508.19;;;21.06;59.51
30618;BME280;17384;51.214;9.202;2023-05-22T07:49:46;98505.31;;;21.16;58.84
30618;BME280;17384;51.214;9.202;2023-05-22T07:52:12;98509.97;;;20.91;59.54
30618;BME280;17384;51.214;9.202;2023-05-22T07:54:37;98513.81;;;21.24;59.26
30618;BME280;17384;51.214;9.202;2023-05-22T07:57:03;98508.94;;;21.40;58.65
30618;BME280;17384;51.214;9.202;2023-05-22T07:59:28;98514.59;;;21.30;58.36
30618;BME280;17384;51.214;9.202;2023-05-22T08:01:54;98511.84;;;21.54;58.20
30618;BME280;17384;51.214;9.202;2023-05-22T08:04:19;98504.53;;;21.63;58.03
30618;BME280;17384;51.214;9.202;2023-05-22T08:06:45;98511.59;;;21.93;58.44
30618;BME280;17384;51.214;9.202;2023-05-22T08:09:10;98506.50;;;22.05;58.33
30618;BME280;17384;51.214;9.202;2023-05-22T08:11:36;98503.31;;;21.93;58.46
30618;BME280;17384;51.214;9.202;2023-05-22T08:14:04;98514.88;;;21.95;58.56
30618;BME280;17384;51.214;9.202;2023-05-22T08:16:30;98496.34;;;22.01;57.99
30618;BME280;17384;51.214;9.202;2023-05-22T08:18:56;98498.38;;;22.14;57.17
30618;BME280;17384;51.214;9.202;2023-05-22T08:21:21;98508.09;;;21.87;59.11
30618;BME280;17384;51.214;9.202;2023-05-22T08:23:47;98501.22;;;21.61;58.96
30618;BME280;17384;51.214;9.202;2023-05-22T08:26:13;98498.09;;;21.91;58.13
30618;BME280;17384;51.214;9.202;2023-05-22T08:28:39;98499.72;;;21.92;57.83
30618;BME280;17384;51.214;9.202;2023-05-22T08:31:09;98504.06;;;21.99;57.89
30618;BME280;17384;51.214;9.202;2023-05-22T08:33:35;98506.28;;;22.02;57.46
30618;BME280;17384;51.214;9.202;2023-05-22T08:36:00;98507.56;;;22.28;57.33
30618;BME280;17384;51.214;9.202;2023-05-22T08:38:25;98504.78;;;22.28;57.61
30618;BME280;17384;51.214;9.202;2023-05-22T08:40:52;98503.91;;;22.14;56.83
30618;BME280;17384;51.214;9.202;2023-05-22T08:43:19;98509.94;;;22.35;57.43
30618;BME280;17384;51.214;9.202;2023-05-22T08:45:58;98508.66;;;22.65;55.95
30618;BME280;17384;51.214;9.202;2023-05-22T08:48:27;98516.44;;;22.62;55.61
30618;BME280;17384;51.214;9.202;2023-05-22T08:50:54;98507.81;;;22.83;55.38
30618;BME280;17384;51.214;9.202;2023-05-22T08:53:23;98506.69;;;22.84;55.70
30618;BME280;17384;51.214;9.202;2023-05-22T08:55:53;98503.97;;;22.98;56.48
30618;BME280;17384;51.214;9.202;2023-05-22T08:58:19;98499.72;;;23.33;55.25
30618;BME280;17384;51.214;9.202;2023-05-22T09:00:46;98506.81;;;23.52;54.13
30618;BME280;17384;51.214;9.202;2023-05-22T09:05:40;98498.31;;;23.62;53.71
30618;BME280;17384;51.214;9.202;2023-05-22T09:08:08;98494.75;;;23.76;54.02
30618;BME280;17384;51.214;9.202;2023-05-22T09:10:34;98498.00;;;23.50;54.08
30618;BME280;17384;51.214;9.202;2023-05-22T09:13:07;98495.72;;;23.93;52.84
30618;BME280;17384;51.214;9.202;2023-05-22T09:15:37;98493.03;;;24.29;51.81
30618;BME280;17384;51.214;9.202;2023-05-22T09:18:03;98492.84;;;24.71;50.31
30618;BME280;17384;51.214;9.202;2023-05-22T09:20:34;98485.66;;;25.14;49.66
30618;BME280;17384;51.214;9.202;2023-05-22T09:23:00;98493.44;;;25.04;49.81
30618;BME280;17384;51.214;9.202;2023-05-22T09:25:26;98489.91;;;25.20;49.64
30618;BME280;17384;51.214;9.202;2023-05-22T09:27:52;98495.00;;;24.96;49.17
30618;BME280;17384;51.214;9.202;2023-05-22T09:30:18;98488.63;;;25.26;47.78
30618;BME280;17384;51.214;9.202;2023-05-22T09:32:44;98479.34;;;25.31;47.68
30618;BME280;17384;51.214;9.202;2023-05-22T09:35:11;98486.78;;;25.53;46.84
30618;BME280;17384;51.214;9.202;2023-05-22T09:37:38;98489.94;;;26.17;46.58
30618;BME280;17384;51.214;9.202;2023-05-22T09:40:06;98481.28;;;26.61;45.41
30618;BME280;17384;51.214;9.202;2023-05-22T09:42:35;98485.38;;;27.07;45.83
30618;BME280;17384;51.214;9.202;2023-05-22T09:45:05;98480.03;;;27.32;43.01
30618;BME280;17384;51.214;9.202;2023-05-22T09:47:31;98481.75;;;26.81;44.14
30618;BME280;17384;51.214;9.202;2023-05-22T09:50:00;98477.75;;;27.34;43.47
30618;BME280;17384;51.214;9.202;2023-05-22T09:52:44;98482.09;;;27.60;41.32
30618;BME280;17384;51.214;9.202;2023-05-22T09:55:12;98474.66;;;27.94;41.74
30618;BME280;17384;51.214;9.202;2023-05-22T09:57:44;98467.34;;;27.89;41.58
30618;BME280;17384;51.214;9.202;2023-05-22T10:00:11;98462.75;;;28.35;41.16
30618;BME280;17384;51.214;9.202;2023-05-22T10:02:44;98469.00;;;27.82;41.91
30618;BME280;17384;51.214;9.202;2023-05-22T10:05:11;98466.00;;;28.16;41.17
30618;BME280;17384;51.214;9.202;2023-05-22T10:07:47;98467.38;;;28.52;39.69
30618;BME280;17384;51.214;9.202;2023-05-22T10:10:16;98464.22;;;28.53;39.60
30618;BME280;17384;51.214;9.202;2023-05-22T10:12:44;98460.91;;;28.60;39.53
30618;BME280;17384;51.214;9.202;2023-05-22T10:15:15;98462.63;;;29.18;38.83
30618;BME280;17384;51.214;9.202;2023-05-22T10:17:42;98465.63;;;29.71;40.34
30618;BME280;17384;51.214;9.202;2023-05-22T10:20:09;98454.97;;;29.40;37.75
30618;BME280;17384;51.214;9.202;2023-05-22T10:22:38;98450.44;;;28.90;38.48
30618;BME280;17384;51.214;9.202;2023-05-22T10:25:04;98448.09;;;29.37;38.07
30618;BME280;17384;51.214;9.202;2023-05-22T10:27:30;98453.75;;;28.50;38.21
30618;BME280;17384;51.214;9.202;2023-05-22T10:30:01;98459.09;;;29.09;38.85
30618;BME280;17384;51.214;9.202;2023-05-22T10:32:46;98447.78;;;29.63;36.88
30618;BME280;17384;51.214;9.202;2023-05-22T10:37:54;98446.75;;;29.68;35.32
30618;BME280;17384;51.214;9.202;2023-05-22T10:40:29;98442.03;;;30.20;36.36
30618;BME280;17384;51.214;9.202;2023-05-22T10:42:59;98442.22;;;30.68;34.06
30618;BME280;17384;51.214;9.202;2023-05-22T10:45:26;98433.00;;;30.67;33.43
30618;BME280;17384;51.214;9.202;2023-05-22T10:48:05;98431.22;;;30.75;33.08
30618;BME280;17384;51.214;9.202;2023-05-22T10:50:31;98430.81;;;30.33;29.94
30618;BME280;17384;51.214;9.202;2023-05-22T10:53:23;98431.44;;;30.82;30.30
30618;BME280;17384;51.214;9.202;2023-05-22T10:55:53;98431.97;;;31.15;30.38
30618;BME280;17384;51.214;9.202;2023-05-22T10:58:28;98428.38;;;30.87;31.27
30618;BME280;17384;51.214;9.202;2023-05-22T11:04:08;98426.00;;;31.64;29.36
30618;BME280;17384;51.214;9.202;2023-05-22T11:06:43;98422.66;;;31.58;30.28
30618;BME280;17384;51.214;9.202;2023-05-22T11:09:29;98415.28;;;30.91;31.34
30618;BME280;17384;51.214;9.202;2023-05-22T11:12:23;98405.06;;;30.15;33.22
30618;BME280;17384;51.214;9.202;2023-05-22T11:17:26;98395.59;;;30.32;35.59
30618;BME280;17384;51.214;9.202;2023-05-22T11:22:35;98404.19;;;29.38;35.98
30618;BME280;17384;51.214;9.202;2023-05-22T11:25:07;98399.00;;;30.13;36.15
30618;BME280;17384;51.214;9.202;2023-05-22T11:27:34;98391.50;;;30.85;34.21
30618;BME280;17384;51.214;9.202;2023-05-22T11:30:01;98397.47;;;30.99;34.41
30618;BME280;17384;51.214;9.202;2023-05-22T11:32:28;98401.03;;;31.27;34.26
30618;BME280;17384;51.214;9.202;2023-05-22T11:34:55;98393.22;;;31.84;30.61
30618;BME280;17384;51.214;9.202;2023-05-22T11:37:21;98384.53;;;31.73;28.73
30618;BME280;17384;51.214;9.202;2023-05-22T11:39:55;98387.75;;;31.40;28.59
30618;BME280;17384;51.214;9.202;2023-05-22T11:42:20;98397.16;;;30.73;32.90
30618;BME280;17384;51.214;9.202;2023-05-22T11:44:46;98382.75;;;31.02;31.93
30618;BME280;17384;51.214;9.202;2023-05-22T11:47:12;98383.38;;;30.80;31.45
30618;BME280;17384;51.214;9.202;2023-05-22T11:49:39;98371.59;;;30.58;33.98
30618;BME280;17384;51.214;9.202;2023-05-22T11:52:06;98368.63;;;29.99;31.30
30618;BME280;17384;51.214;9.202;2023-05-22T11:54:33;98365.75;;;29.59;33.35
30618;BME280;17384;51.214;9.202;2023-05-22T11:56:59;98369.47;;;29.75;31.98
30618;BME280;17384;51.214;9.202;2023-05-22T11:59:26;98360.06;;;29.55;29.98
30618;BME280;17384;51.214;9.202;2023-05-22T12:01:51;98361.50;;;29.89;30.40
30618;BME280;17384;51.214;9.202;2023-05-22T12:04:17;98367.13;;;30.29;32.25
30618;BME280;17384;51.214;9.202;2023-05-22T12:06:43;98362.19;;;30.11;28.56
30618;BME280;17384;51.214;9.202;2023-05-22T12:09:08;98363.53;;;30.57;28.37
30618;BME280;17384;51.214;9.202;2023-05-22T12:11:35;98342.72;;;29.25;30.60
30618;BME280;17384;51.214;9.202;2023-05-22T12:14:04;98354.09;;;29.08;31.55
30618;BME280;17384;51.214;9.202;2023-05-22T12:16:34;98357.34;;;28.86;32.33
30618;BME280;17384;51.214;9.202;2023-05-22T12:19:07;98358.16;;;28.86;33.39
30618;BME280;17384;51.214;9.202;2023-05-22T12:21:33;98348.22;;;28.77;34.23
30618;BME280;17384;51.214;9.202;2023-05-22T12:24:04;98342.94;;;29.20;32.45
30618;BME280;17384;51.214;9.202;2023-05-22T12:26:31;98346.22;;;28.98;31.45
30618;BME280;17384;51.214;9.202;2023-05-22T12:28:57;98350.47;;;28.83;33.12
30618;BME280;17384;51.214;9.202;2023-05-22T12:31:23;98361.19;;;29.06;33.99
30618;BME280;17384;51.214;9.202;2023-05-22T12:33:56;98355.97;;;29.28;33.00
30618;BME280;17384;51.214;9.202;2023-05-22T12:36:38;98351.34;;;28.75;34.89
30618;BME280;17384;51.214;9.202;2023-05-22T12:39:08;98350.47;;;27.96;33.74
30618;BME280;17384;51.214;9.202;2023-05-22T12:41:35;98348.16;;;27.98;34.20
30618;BME280;17384;51.214;9.202;2023-05-22T12:44:00;98344.75;;;28.14;36.49
30618;BME280;17384;51.214;9.202;2023-05-22T12:46:30;98337.09;;;27.90;35.58
30618;BME280;17384;51.214;9.202;2023-05-22T12:48:56;98342.66;;;28.11;37.08
30618;BME280;17384;51.214;9.202;2023-05-22T12:51:24;98349.38;;;28.30;36.63
30618;BME280;17384;51.214;9.202;2023-05-22T12:53:51;98344.06;;;27.96;38.23
30618;BME280;17384;51.214;9.202;2023-05-22T12:56:16;98351.81;;;27.11;38.01
30618;BME280;17384;51.214;9.202;2023-05-22T12:58:42;98347.72;;;27.08;39.75
30618;BME280;17384;51.214;9.202;2023-05-22T13:01:07;98360.97;;;26.64;40.78
30618;BME280;17384;51.214;9.202;2023-05-22T13:03:33;98352.69;;;26.47;40.64
30618;BME280;17384;51.214;9.202;2023-05-22T13:05:59;98356.69;;;26.76;40.25
30618;BME280;17384;51.214;9.202;2023-05-22T13:08:24;98362.38;;;26.96;40.90
30618;BME280;17384;51.214;9.202;2023-05-22T13:10:50;98345.66;;;27.35;40.39
30618;BME280;17384;51.214;9.202;2023-05-22T13:13:15;98361.97;;;27.45;39.75
30618;BME280;17384;51.214;9.202;2023-05-22T13:15:41;98367.94;;;27.35;40.34
30618;BME280;17384;51.214;9.202;2023-05-22T13:18:07;98369.66;;;27.10;39.84
30618;BME280;17384;51.214;9.202;2023-05-22T13:20:32;98365.72;;;27.19;39.96
30618;BME280;17384;51.214;9.202;2023-05-22T13:23:00;98365.97;;;26.97;39.91
30618;BME280;17384;51.214;9.202;2023-05-22T13:25:25;98355.81;;;27.30;38.28
30618;BME280;17384;51.214;9.202;2023-05-22T13:27:51;98355.97;;;27.63;37.57
30618;BME280;17384;51.214;9.202;2023-05-22T13:30:16;98352.28;;;27.92;35.92